TimeCST,TemperatureF,Dew PointF,Humidity,Sea Level PressureIn,VisibilityMPH,Wind Direction,Wind SpeedMPH,Gust SpeedMPH,PrecipitationIn,Events,Conditions,WindDirDegrees,DateUTC
12:00 AM,59.0,53.6,82,-9999,6.2,Calm,Calm,-,N/A,,Overcast,0,2012-10-30 06:00:00
2:00 AM,57.2,53.6,88,-9999,6.2,Calm,Calm,-,N/A,,Mostly Cloudy,0,2012-10-30 08:00:00
3:00 AM,57.2,50.0,77,-9999,6.2,Calm,Calm,-,N/A,,Overcast,0,2012-10-30 09:00:00
4:00 AM,57.2,53.6,88,-9999,6.2,Calm,Calm,-,N/A,,Overcast,0,2012-10-30 10:00:00
5:00 AM,55.4,53.6,94,-9999,6.2,Calm,Calm,-,N/A,,Scattered Clouds,0,2012-10-30 11:00:00
6:00 AM,54,53,94,,25,Calm,Calm,,,,Scattered Clouds,,2012-10-30 12:00:00
6:00 AM,53.6,53.6,100,-9999,6.2,Calm,Calm,-,N/A,,Partly Cloudy,0,2012-10-30 12:00:00
7:00 AM,53.6,51.8,94,-9999,6.2,Calm,Calm,-,N/A,,Mostly Cloudy,0,2012-10-30 13:00:00
8:00 AM,59.0,55.4,88,-9999,6.2,Calm,Calm,-,N/A,,Mostly Cloudy,0,2012-10-30 14:00:00
9:00 AM,64.4,51.8,64,-9999,6.2,Calm,Calm,-,N/A,,Scattered Clouds,0,2012-10-30 15:00:00
10:00 AM,66.2,51.8,60,-9999,6.2,NE,4.6,-,N/A,,Scattered Clouds,50,2012-10-30 16:00:00
11:00 AM,66.2,51.8,60,-9999,6.2,Calm,Calm,-,N/A,,Scattered Clouds,0,2012-10-30 17:00:00
12:00 PM,71.6,53.6,53,-9999,6.2,Calm,Calm,-,N/A,,Partly Cloudy,0,2012-10-30 18:00:00
1:00 PM,73.4,55.4,53,-9999,6.2,Calm,Calm,-,N/A,,Partly Cloudy,0,2012-10-30 19:00:00
2:00 PM,73.4,50.0,44,-9999,6.2,East,6.9,-,N/A,,Scattered Clouds,90,2012-10-30 20:00:00
3:00 PM,75.2,48.2,38,-9999,6.2,Calm,Calm,-,N/A,,Partly Cloudy,0,2012-10-30 21:00:00
4:00 PM,69.8,50.0,49,-9999,6.2,SE,6.9,-,N/A,,Mostly Cloudy,140,2012-10-30 22:00:00
5:00 PM,66.2,53.6,64,-9999,6.2,ESE,9.2,-,N/A,,Mostly Cloudy,120,2012-10-30 23:00:00
6:00 PM,66.2,53.6,64,-9999,6.2,Calm,Calm,-,N/A,,Overcast,0,2012-10-31 00:00:00
7:00 PM,59.0,57.2,94,-9999,6.2,Calm,Calm,-,N/A,,Overcast,0,2012-10-31 01:00:00
8:00 PM,59.0,57.2,94,-9999,6.2,Calm,Calm,-,N/A,,Overcast,0,2012-10-31 02:00:00
9:00 PM,59.0,59.0,100,-9999,6.2,Calm,Calm,-,N/A,,Overcast,0,2012-10-31 03:00:00
10:00 PM,59.0,55.4,88,-9999,6.2,Calm,Calm,-,N/A,,Overcast,0,2012-10-31 04:00:00